createdAt,value
2023-03-28T00:01:01.554Z,0.77
2023-03-28T00:04:03.493Z,0.78
2023-03-28T00:07:05.708Z,0.76
2023-03-28T00:10:08.054Z,0.74
2023-03-28T00:13:10.560Z,0.73
2023-03-28T00:16:13.329Z,0.72
2023-03-28T00:19:18.185Z,0.71
2023-03-28T00:22:21.179Z,0.70
2023-03-28T00:25:23.073Z,0.67
2023-03-28T00:28:24.603Z,0.65
2023-03-28T00:31:26.540Z,0.66
2023-03-28T00:34:28.154Z,0.66
2023-03-28T00:37:30.016Z,0.66
2023-03-28T00:40:38.694Z,0.64
2023-03-28T00:43:52.138Z,0.64
2023-03-28T00:46:53.781Z,0.63
2023-03-28T00:50:00.660Z,0.63
2023-03-28T00:53:10.446Z,0.60
2023-03-28T00:56:17.642Z,0.59
2023-03-28T00:59:23.632Z,0.55
2023-03-28T01:02:25.714Z,0.55
2023-03-28T01:05:31.450Z,0.54
2023-03-28T01:08:37.976Z,0.55
2023-03-28T01:11:42.058Z,0.55
2023-03-28T01:14:45.387Z,0.55
2023-03-28T01:17:48.264Z,0.56
2023-03-28T01:20:52.739Z,0.55
2023-03-28T01:24:12.865Z,0.55
2023-03-28T01:27:41.841Z,0.54
2023-03-28T01:31:00.341Z,0.54
2023-03-28T01:34:30.168Z,0.54
2023-03-28T01:38:05.711Z,0.53
2023-03-28T01:41:35.562Z,0.52
2023-03-28T01:44:40.400Z,0.51
2023-03-28T01:47:48.616Z,0.51
2023-03-28T01:51:03.865Z,0.51
2023-03-28T01:54:18.096Z,0.51
2023-03-28T01:57:24.005Z,0.51
2023-03-28T02:00:34.330Z,0.50
2023-03-28T02:03:39.509Z,0.51
2023-03-28T02:06:46.971Z,0.50
2023-03-28T02:09:51.430Z,0.49
2023-03-28T02:13:00.771Z,0.48
2023-03-28T02:16:05.014Z,0.46
2023-03-28T02:19:08.549Z,0.45
2023-03-28T02:22:21.284Z,0.43
2023-03-28T02:25:22.984Z,0.42
2023-03-28T02:28:25.855Z,0.40
2023-03-28T02:31:27.589Z,0.39
2023-03-28T02:34:29.389Z,0.36
2023-03-28T02:37:50.814Z,0.33
2023-03-28T02:41:07.205Z,0.29
2023-03-28T02:44:39.578Z,0.27
2023-03-28T02:48:02.955Z,0.28
2023-03-28T02:51:30.249Z,0.27
2023-03-28T02:54:49.214Z,0.27
2023-03-28T02:57:56.062Z,0.26
2023-03-28T03:00:57.717Z,0.24
2023-03-28T03:04:00.780Z,0.23
2023-03-28T03:07:02.920Z,0.23
2023-03-28T03:10:06.966Z,0.22
2023-03-28T03:13:08.563Z,0.21
2023-03-28T03:16:10.721Z,0.21
2023-03-28T03:19:12.351Z,0.20
2023-03-28T03:22:21.053Z,0.21
2023-03-28T03:25:23.103Z,0.22
2023-03-28T03:28:24.712Z,0.21
2023-03-28T03:31:26.353Z,0.21
2023-03-28T03:34:27.995Z,0.18
2023-03-28T03:37:29.688Z,0.17
2023-03-28T03:40:31.253Z,0.16
2023-03-28T03:43:34.287Z,0.14
2023-03-28T03:46:35.967Z,0.11
2023-03-28T03:49:38.112Z,0.10
2023-03-28T03:52:39.811Z,0.09
2023-03-28T03:55:41.315Z,0.07
2023-03-28T03:58:43.033Z,0.06
2023-03-28T04:01:44.575Z,0.02
2023-03-28T04:04:47.852Z,0.01
2023-03-28T04:07:49.474Z,0.00
2023-03-28T04:10:50.999Z,0.01
2023-03-28T04:13:52.575Z,0.00
2023-03-28T04:16:54.121Z,0.01
2023-03-28T04:19:56.403Z,0.02
2023-03-28T04:23:00.325Z,0.02
2023-03-28T04:26:02.571Z,0.05
2023-03-28T04:29:05.273Z,0.07
2023-03-28T04:32:06.901Z,0.08
2023-03-28T04:35:08.854Z,0.09
2023-03-28T04:38:10.506Z,0.10
2023-03-28T04:41:22.258Z,0.08
2023-03-28T04:44:23.945Z,0.08
2023-03-28T04:47:25.561Z,0.06
2023-03-28T04:50:27.371Z,0.05
2023-03-28T04:53:28.995Z,0.03
2023-03-28T04:56:30.542Z,0.01
2023-03-28T04:59:32.107Z,0.01
2023-03-28T05:02:33.748Z,0.02
2023-03-28T05:05:35.579Z,0.04
2023-03-28T05:08:37.137Z,0.04
2023-03-28T05:11:39.934Z,0.04
2023-03-28T05:14:42.018Z,0.06
2023-03-28T05:17:43.600Z,0.07
2023-03-28T05:20:45.272Z,0.47
2023-03-28T05:23:52.011Z,1.33
2023-03-28T05:26:54.252Z,1.99
2023-03-28T05:29:56.274Z,2.07
2023-03-28T05:32:58.747Z,2.00
2023-03-28T05:36:00.738Z,1.87
2023-03-28T05:39:02.304Z,1.75
2023-03-28T05:42:04.222Z,1.62
2023-03-28T05:45:07.148Z,1.52
2023-03-28T05:48:08.803Z,1.47
2023-03-28T05:51:10.393Z,1.41
2023-03-28T05:54:12.081Z,1.39
2023-03-28T05:57:13.634Z,1.36
2023-03-28T06:00:15.915Z,1.34
2023-03-28T06:03:17.760Z,1.29
2023-03-28T06:06:20.463Z,1.25
2023-03-28T06:09:22.409Z,1.23
2023-03-28T06:12:23.963Z,1.21
2023-03-28T06:15:25.830Z,1.21
2023-03-28T06:18:27.591Z,1.25
2023-03-28T06:21:29.105Z,1.28
2023-03-28T06:24:30.847Z,1.29
2023-03-28T06:27:33.282Z,1.29
2023-03-28T06:30:34.899Z,1.26
2023-03-28T06:33:37.418Z,1.23
2023-03-28T06:36:39.045Z,1.21
2023-03-28T06:39:41.598Z,1.15
2023-03-28T06:42:43.405Z,1.09
2023-03-28T06:45:44.982Z,1.03
2023-03-28T06:48:47.272Z,1.38
2023-03-28T06:51:48.836Z,1.56
2023-03-28T06:54:50.384Z,1.52
2023-03-28T06:57:52.023Z,1.49
2023-03-28T07:00:54.308Z,1.48
2023-03-28T07:03:59.646Z,1.53
2023-03-28T07:07:01.474Z,1.60
2023-03-28T07:10:03.237Z,1.70
2023-03-28T07:13:05.596Z,1.77
2023-03-28T07:16:11.557Z,1.85
2023-03-28T07:19:13.294Z,1.96
2023-03-28T07:22:14.797Z,2.16
2023-03-28T07:25:16.541Z,2.31
2023-03-28T07:28:18.093Z,2.44
2023-03-28T07:31:21.211Z,2.54
2023-03-28T07:34:22.967Z,2.63
2023-03-28T07:37:24.627Z,2.71
2023-03-28T07:40:26.180Z,2.74
2023-03-28T07:43:27.752Z,2.73
2023-03-28T07:46:29.464Z,2.75
2023-03-28T07:49:31.100Z,2.78
2023-03-28T07:52:32.662Z,2.79
2023-03-28T07:55:52.082Z,2.78
2023-03-28T07:58:57.008Z,2.80
2023-03-28T08:01:58.682Z,2.85
2023-03-28T08:05:00.462Z,2.94
2023-03-28T08:08:03.640Z,3.06
2023-03-28T08:11:05.809Z,3.15
2023-03-28T08:14:10.087Z,3.21
2023-03-28T08:17:11.685Z,3.30
2023-03-28T08:20:13.370Z,3.39
2023-03-28T08:23:15.358Z,3.48
2023-03-28T08:26:17.054Z,3.54
2023-03-28T08:29:18.643Z,3.58
2023-03-28T08:32:20.326Z,4.00
2023-03-28T08:35:21.856Z,4.62
2023-03-28T08:38:23.662Z,4.95
2023-03-28T08:41:34.323Z,5.06
2023-03-28T08:44:48.672Z,5.04
2023-03-28T08:47:53.163Z,4.96
2023-03-28T08:51:15.372Z,4.94
2023-03-28T08:54:24.340Z,4.99
2023-03-28T08:57:30.003Z,5.04
2023-03-28T09:00:34.302Z,5.14
2023-03-28T09:03:36.445Z,5.29
2023-03-28T09:06:43.747Z,5.40
2023-03-28T09:10:13.639Z,5.43
2023-03-28T09:13:30.395Z,5.40
2023-03-28T09:17:01.457Z,5.31
2023-03-28T09:20:15.135Z,5.21
2023-03-28T09:23:26.775Z,5.13
2023-03-28T09:26:35.637Z,5.04
2023-03-28T09:29:39.904Z,5.02
2023-03-28T09:32:42.574Z,5.13
2023-03-28T09:35:47.093Z,5.27
2023-03-28T09:38:59.148Z,5.42
2023-03-28T09:42:08.138Z,5.54
2023-03-28T09:45:30.293Z,5.70
2023-03-28T09:48:35.608Z,5.83
2023-03-28T09:51:37.490Z,5.99
2023-03-28T09:54:41.816Z,6.18
2023-03-28T09:58:01.710Z,6.36
2023-03-28T10:01:03.510Z,6.54
2023-03-28T10:04:14.536Z,6.68
2023-03-28T10:07:27.763Z,6.81
2023-03-28T10:10:29.754Z,6.90
2023-03-28T10:13:40.629Z,6.98
2023-03-28T10:16:43.814Z,6.95
2023-03-28T10:19:47.412Z,6.90
2023-03-28T10:22:52.013Z,6.99
2023-03-28T10:25:54.639Z,7.13
2023-03-28T10:29:02.320Z,7.23
2023-03-28T10:32:06.456Z,7.24
2023-03-28T10:35:27.839Z,7.10
2023-03-28T10:38:43.407Z,6.93
2023-03-28T10:41:59.654Z,6.91
2023-03-28T10:45:02.928Z,6.99
2023-03-28T10:48:16.694Z,6.96
2023-03-28T10:51:23.556Z,6.92
2023-03-28T10:54:33.112Z,6.84
2023-03-28T10:57:43.859Z,6.83
2023-03-28T11:01:08.720Z,6.92
2023-03-28T11:04:11.098Z,6.96
2023-03-28T11:07:15.643Z,6.96
2023-03-28T11:10:29.651Z,6.91
2023-03-28T11:13:31.301Z,6.87
2023-03-28T11:16:38.588Z,6.89
2023-03-28T11:19:40.215Z,6.97
2023-03-28T11:23:10.635Z,7.12
2023-03-28T11:26:17.108Z,7.26
2023-03-28T11:29:43.180Z,7.40
2023-03-28T11:32:52.404Z,7.52
2023-03-28T11:36:10.303Z,7.67
2023-03-28T11:39:24.253Z,7.77
2023-03-28T11:42:31.298Z,7.88
2023-03-28T11:45:51.074Z,8.00
2023-03-28T11:49:18.698Z,8.17
2023-03-28T11:52:28.345Z,8.22
2023-03-28T11:55:36.603Z,8.21
2023-03-28T11:58:42.191Z,8.12
2023-03-28T12:01:55.071Z,8.02
2023-03-28T12:05:24.961Z,7.89
2023-03-28T12:08:55.499Z,7.86
2023-03-28T12:12:06.232Z,7.91
2023-03-28T12:15:15.684Z,7.87
2023-03-28T12:18:28.814Z,7.77
2023-03-28T12:21:47.238Z,7.69
2023-03-28T12:24:52.586Z,7.64
2023-03-28T12:28:11.118Z,7.66
2023-03-28T12:31:21.216Z,7.71
2023-03-28T12:34:38.339Z,7.69
2023-03-28T12:37:47.003Z,7.75
2023-03-28T12:40:59.676Z,7.78
2023-03-28T12:44:05.644Z,7.81
2023-03-28T12:47:16.323Z,7.84
2023-03-28T12:50:17.806Z,7.85
2023-03-28T12:53:21.984Z,7.82
2023-03-28T12:56:23.607Z,7.76
2023-03-28T12:59:40.279Z,7.76
2023-03-28T13:02:52.075Z,7.78
2023-03-28T13:06:19.300Z,7.77
2023-03-28T13:09:49.581Z,7.68
2023-03-28T13:13:02.832Z,7.62
2023-03-28T13:16:13.050Z,7.57
2023-03-28T13:19:18.407Z,7.53
2023-03-28T13:22:32.834Z,7.50
2023-03-28T13:25:35.648Z,7.45
2023-03-28T13:28:41.257Z,7.44
2023-03-28T13:31:43.618Z,7.74
2023-03-28T13:34:50.546Z,7.96
2023-03-28T13:37:52.123Z,8.20
2023-03-28T13:41:06.521Z,8.18
2023-03-28T13:44:23.246Z,8.18
2023-03-28T13:47:45.257Z,8.35
2023-03-28T13:50:49.462Z,8.35
2023-03-28T13:53:51.035Z,8.27
2023-03-28T13:56:53.166Z,8.19
2023-03-28T13:59:58.747Z,8.09
2023-03-28T14:03:04.112Z,7.94
2023-03-28T14:06:14.435Z,7.77
2023-03-28T14:09:29.264Z,7.60
2023-03-28T14:12:31.019Z,7.46
2023-03-28T14:15:39.806Z,7.34
2023-03-28T14:18:48.125Z,7.24
2023-03-28T14:21:50.694Z,7.18
2023-03-28T14:24:56.377Z,7.09
2023-03-28T14:28:07.379Z,7.03
2023-03-28T14:31:30.664Z,6.96
2023-03-28T14:34:34.845Z,6.88
2023-03-28T14:37:37.439Z,6.84
2023-03-28T14:40:41.428Z,6.80
2023-03-28T14:43:43.146Z,6.78
2023-03-28T14:46:44.782Z,6.79
2023-03-28T14:49:47.166Z,6.80
2023-03-28T14:52:49.238Z,6.83
2023-03-28T14:55:54.507Z,6.86
2023-03-28T14:59:01.140Z,6.90
2023-03-28T15:02:05.704Z,6.93
2023-03-28T15:05:12.321Z,6.94
2023-03-28T15:08:34.556Z,7.00
2023-03-28T15:11:38.627Z,6.98
2023-03-28T15:14:42.802Z,6.98
2023-03-28T15:17:46.663Z,6.98
2023-03-28T15:20:52.164Z,6.94
2023-03-28T15:23:59.954Z,6.89
2023-03-28T15:27:04.197Z,6.86
2023-03-28T15:30:13.026Z,6.85
2023-03-28T15:33:21.222Z,6.83
2023-03-28T15:36:28.725Z,6.80
2023-03-28T15:39:35.257Z,6.79
2023-03-28T15:42:37.168Z,6.78
2023-03-28T15:45:42.164Z,6.79
2023-03-28T15:48:44.082Z,6.83
2023-03-28T15:51:51.528Z,6.84
2023-03-28T15:54:54.771Z,6.84
2023-03-28T15:57:56.942Z,6.80
2023-03-28T16:01:18.751Z,6.74
2023-03-28T16:04:24.043Z,6.73
2023-03-28T16:07:27.053Z,6.69
2023-03-28T16:10:30.042Z,6.65
2023-03-28T16:13:31.792Z,6.62
2023-03-28T16:16:33.435Z,6.57
2023-03-28T16:19:36.902Z,6.54
2023-03-28T16:22:38.401Z,6.53
2023-03-28T16:25:43.412Z,6.51
2023-03-28T16:28:44.931Z,6.45
2023-03-28T16:31:46.770Z,6.44
2023-03-28T16:34:48.605Z,6.41
2023-03-28T16:37:50.205Z,6.40
2023-03-28T16:40:51.998Z,6.38
2023-03-28T16:43:54.161Z,6.35
2023-03-28T16:46:55.765Z,6.31
2023-03-28T16:49:57.371Z,6.28
2023-03-28T16:52:58.979Z,6.24
2023-03-28T16:56:01.222Z,6.20
2023-03-28T16:59:04.508Z,6.15
2023-03-28T17:02:07.793Z,6.14
2023-03-28T17:05:09.646Z,6.14
2023-03-28T17:08:11.819Z,6.09
2023-03-28T17:11:13.766Z,6.06
2023-03-28T17:14:15.710Z,6.04
2023-03-28T17:17:18.728Z,5.99
2023-03-28T17:20:20.494Z,5.95
2023-03-28T17:23:22.055Z,5.93
2023-03-28T17:26:23.641Z,5.92
2023-03-28T17:29:25.534Z,5.88
2023-03-28T17:32:27.401Z,5.84
2023-03-28T17:35:29.173Z,5.78
2023-03-28T17:38:30.900Z,5.73
2023-03-28T17:41:32.492Z,5.68
2023-03-28T17:44:34.035Z,5.64
2023-03-28T17:47:35.902Z,5.64
2023-03-28T17:50:37.534Z,5.60
2023-03-28T17:53:41.049Z,5.56
2023-03-28T17:56:42.631Z,5.54
2023-03-28T17:59:44.634Z,5.50
2023-03-28T18:02:46.592Z,5.47
2023-03-28T18:05:55.049Z,5.44
2023-03-28T18:08:56.780Z,5.44
2023-03-28T18:11:58.340Z,5.49
2023-03-28T18:15:01.294Z,5.60
2023-03-28T18:18:03.457Z,5.91
2023-03-28T18:21:07.632Z,6.01
2023-03-28T18:24:09.417Z,6.04
2023-03-28T18:27:10.992Z,6.01
2023-03-28T18:30:12.933Z,5.98
2023-03-28T18:33:14.579Z,5.98
2023-03-28T18:36:16.117Z,5.98
2023-03-28T18:39:17.851Z,5.99
2023-03-28T18:42:19.550Z,5.98
2023-03-28T18:45:21.233Z,5.97
2023-03-28T18:48:22.827Z,5.95
2023-03-28T18:51:25.212Z,5.92
2023-03-28T18:54:26.760Z,5.92
2023-03-28T18:57:28.637Z,5.93
2023-03-28T19:00:30.411Z,5.94
2023-03-28T19:03:38.497Z,5.93
2023-03-28T19:06:40.142Z,5.92
2023-03-28T19:09:42.156Z,5.89
2023-03-28T19:12:43.823Z,5.86
2023-03-28T19:15:45.369Z,5.84
2023-03-28T19:18:47.410Z,5.81
2023-03-28T19:21:48.969Z,5.80
2023-03-28T19:24:50.690Z,5.79
2023-03-28T19:27:52.296Z,5.78
2023-03-28T19:31:02.530Z,5.79
2023-03-28T19:34:04.153Z,5.77
2023-03-28T19:37:05.879Z,5.76
2023-03-28T19:40:16.111Z,5.74
2023-03-28T19:43:21.088Z,5.71
2023-03-28T19:46:33.273Z,5.71
2023-03-28T19:49:35.594Z,5.72
2023-03-28T19:52:42.614Z,5.74
2023-03-28T19:55:51.229Z,5.74
2023-03-28T19:58:53.245Z,5.73
2023-03-28T20:01:54.826Z,5.69
2023-03-28T20:04:57.052Z,5.67
2023-03-28T20:07:58.827Z,5.64
2023-03-28T20:11:02.096Z,5.55
2023-03-28T20:14:03.845Z,5.49
2023-03-28T20:17:05.488Z,5.45
2023-03-28T20:20:08.261Z,5.47
2023-03-28T20:23:11.688Z,5.49
2023-03-28T20:26:16.470Z,5.48
2023-03-28T20:29:18.620Z,5.48
2023-03-28T20:32:20.147Z,5.45
2023-03-28T20:35:21.729Z,5.43
2023-03-28T20:38:23.957Z,5.40
2023-03-28T20:41:26.885Z,5.38
2023-03-28T20:44:30.601Z,5.33
2023-03-28T20:47:32.336Z,5.26
2023-03-28T20:50:34.244Z,5.21
2023-03-28T20:53:35.803Z,5.34
2023-03-28T20:56:37.671Z,5.97
2023-03-28T20:59:40.718Z,6.51
2023-03-28T21:02:42.585Z,6.53
2023-03-28T21:05:46.166Z,6.44
2023-03-28T21:08:50.025Z,6.30
2023-03-28T21:11:51.690Z,6.16
2023-03-28T21:14:55.580Z,6.01
2023-03-28T21:17:57.707Z,5.86
2023-03-28T21:20:59.504Z,5.68
2023-03-28T21:24:02.330Z,5.55
2023-03-28T21:27:03.834Z,5.47
2023-03-28T21:30:08.180Z,5.41
2023-03-28T21:33:16.013Z,5.38
2023-03-28T21:36:19.552Z,5.33
2023-03-28T21:39:21.632Z,5.32
2023-03-28T21:42:23.226Z,5.32
2023-03-28T21:45:24.790Z,5.31
2023-03-28T21:48:26.350Z,5.30
2023-03-28T21:51:27.952Z,5.30
2023-03-28T21:54:29.666Z,5.28
2023-03-28T21:57:31.414Z,5.27
2023-03-28T22:00:32.981Z,5.25
2023-03-28T22:03:37.585Z,5.23
2023-03-28T22:06:39.158Z,5.20
2023-03-28T22:09:41.209Z,5.17
2023-03-28T22:12:46.640Z,5.18
2023-03-28T22:15:49.629Z,5.21
2023-03-28T22:18:51.463Z,5.20
2023-03-28T22:21:53.043Z,5.19
2023-03-28T22:24:54.828Z,5.18
2023-03-28T22:27:56.884Z,5.12
2023-03-28T22:30:58.666Z,5.08
2023-03-28T22:34:00.326Z,5.04
2023-03-28T22:37:01.886Z,5.00
2023-03-28T22:40:06.661Z,4.93
2023-03-28T22:43:09.106Z,4.87
2023-03-28T22:46:12.867Z,4.81
2023-03-28T22:49:22.501Z,4.73
2023-03-28T22:52:31.614Z,4.68
2023-03-28T22:55:33.252Z,4.62
2023-03-28T22:58:34.869Z,4.57
2023-03-28T23:01:37.391Z,4.53
2023-03-28T23:04:40.221Z,4.47
2023-03-28T23:07:41.863Z,4.43
2023-03-28T23:10:43.816Z,4.40
2023-03-28T23:13:45.752Z,4.37
2023-03-28T23:16:47.362Z,4.36
2023-03-28T23:19:50.208Z,4.33
2023-03-28T23:22:51.928Z,4.28
2023-03-28T23:25:53.506Z,4.28
2023-03-28T23:28:55.131Z,4.26
2023-03-28T23:31:56.860Z,4.24
2023-03-28T23:34:58.657Z,4.23
2023-03-28T23:38:00.182Z,4.21
2023-03-28T23:41:02.082Z,4.20
2023-03-28T23:44:04.435Z,4.16
2023-03-28T23:47:06.175Z,4.15
2023-03-28T23:50:09.376Z,4.10
2023-03-28T23:53:11.004Z,4.07
2023-03-28T23:56:12.579Z,4.04
2023-03-28T23:59:14.107Z,4.00
